Time;durP1;ratioP1;P1;durP2;ratioP2;P2;SDS_P1;SDS_P2;PMS_P1;PMS_P2;Temp;Humidity;BMP_temperature;BMP_pressure;BME280_temperature;BME280_humidity;BME280_pressure;Samples;Min_cycle;Max_cycle;Signal;HPM_P1;HPM_P2
2023/04/22 00:00:50;;;;;;;;;;;22.20;56.80;;;;;;1519723;77;700;-61
2023/04/22 00:02:54;;;;;;;;;;;22.20;56.70;;;;;;1536921;77;657;-61
2023/04/22 00:04:56;;;;;;;;;;;22.40;56.70;;;;;;1519562;78;1668;-61
2023/04/22 00:06:58;;;;;;;;;;;22.30;56.40;;;;;;1517861;78;734;-62
2023/04/22 00:09:00;;;;;;;;;;;22.30;56.20;;;;;;1514431;78;1547;-62
2023/04/22 00:11:02;;;;;;;;;;;22.40;56.40;;;;;;1510358;78;799;-60
2023/04/22 00:13:04;;;;;;;;;;;22.40;56.50;;;;;;1511154;78;777;-61
2023/04/22 00:15:06;;;;;;;;;;;22.30;56.50;;;;;;1497202;78;1941;-61
2023/04/22 00:17:08;;;;;;;;;;;22.20;56.40;;;;;;1512686;76;895;-62
2023/04/22 00:19:10;;;;;;;;;;;22.30;56.50;;;;;;1511860;78;760;-60
2023/04/22 00:21:11;;;;;;;;;;;22.30;56.30;;;;;;1578755;74;623;-62
2023/04/22 00:23:13;;;;;;;;;;;22.30;56.50;;;;;;1575355;74;1577;-63
2023/04/22 00:25:15;;;;;;;;;;;22.30;56.40;;;;;;1579230;74;1127;-62
2023/04/22 00:27:17;;;;;;;;;;;22.30;56.30;;;;;;1588333;74;737;-63
2023/04/22 00:29:19;;;;;;;;;;;22.40;56.10;;;;;;1570681;74;772;-62
2023/04/22 00:31:21;;;;;;;;;;;22.30;56.00;;;;;;1578623;74;711;-60
2023/04/22 00:33:23;;;;;;;;;;;22.40;55.90;;;;;;1577479;74;750;-61
2023/04/22 00:35:25;;;;;;;;;;;22.30;55.90;;;;;;1578432;74;1939;-61
2023/04/22 00:37:27;;;;;;;;;;;22.30;55.90;;;;;;1576157;74;1504;-62
2023/04/22 00:39:29;;;;;;;;;;;22.30;55.80;;;;;;1586934;74;905;-61
2023/04/22 00:41:31;;;;;;;;;;;22.40;55.90;;;;;;1581174;74;764;-62
2023/04/22 00:43:33;;;;;;;;;;;22.30;56.00;;;;;;1579861;74;718;-62
2023/04/22 00:45:36;;;;;;;;;;;22.20;55.90;;;;;;1584770;74;1147;-61
2023/04/22 00:47:38;;;;;;;;;;;22.20;56.80;;;;;;1579707;74;736;-61
2023/04/22 00:49:40;;;;;;;;;;;22.20;56.60;;;;;;1577068;74;754;-63
2023/04/22 00:51:41;;;;;;;;;;;22.20;56.40;;;;;;1578759;74;1559;-63
2023/04/22 00:53:43;;;;;;;;;;;22.20;56.40;;;;;;1580161;74;784;-62
2023/04/22 00:55:45;;;;;;;;;;;22.20;56.20;;;;;;1582913;74;1945;-63
2023/04/22 00:57:48;;;;;;;;;;;22.20;56.20;;;;;;1580479;74;786;-63
2023/04/22 00:59:50;;;;;;;;;;;22.20;56.30;;;;;;1570638;73;697;-63
2023/04/22 01:01:52;;;;;;;;;;;22.20;56.20;;;;;;1579268;73;789;-62
2023/04/22 01:03:55;;;;;;;;;;;22.20;56.30;;;;;;1579714;74;771;-61
2023/04/22 01:05:57;;;;;;;;;;;22.10;56.20;;;;;;1570872;74;1623;-64
2023/04/22 01:07:59;;;;;;;;;;;22.10;56.70;;;;;;1572722;74;780;-63
2023/04/22 01:10:00;;;;;;;;;;;22.10;57.00;;;;;;1577017;74;694;-62
2023/04/22 01:12:02;;;;;;;;;;;22.10;57.20;;;;;;1551250;75;728;-62
2023/04/22 01:14:04;;;;;;;;;;;22.20;56.90;;;;;;1577635;74;783;-62
2023/04/22 01:16:07;;;;;;;;;;;22.30;56.80;;;;;;1586383;74;2088;-61
2023/04/22 01:18:09;;;;;;;;;;;22.20;56.40;;;;;;1569376;74;702;-63
2023/04/22 01:20:12;;;;;;;;;;;22.20;56.70;;;;;;1576122;74;1583;-62
2023/04/22 01:22:14;;;;;;;;;;;22.20;56.60;;;;;;1579701;74;759;-62
2023/04/22 01:24:16;;;;;;;;;;;22.20;56.60;;;;;;1571335;74;1180;-61
2023/04/22 01:26:18;;;;;;;;;;;22.20;56.50;;;;;;1566785;74;707;-60
2023/04/22 01:28:20;;;;;;;;;;;22.10;56.30;;;;;;1569687;74;680;-60
2023/04/22 01:30:22;;;;;;;;;;;22.10;56.30;;;;;;1575777;75;803;-60
2023/04/22 01:32:24;;;;;;;;;;;22.10;56.50;;;;;;1583059;74;693;-61
2023/04/22 01:34:26;;;;;;;;;;;22.10;56.50;;;;;;1583986;74;1727;-60
2023/04/22 01:36:28;;;;;;;;;;;22.10;56.70;;;;;;1573475;74;1929;-59
2023/04/22 01:38:32;;;;;;;;;;;22.10;56.60;;;;;;1565363;74;664;-62
2023/04/22 01:40:33;;;;;;;;;;;22.10;56.50;;;;;;1569657;74;1630;-61
2023/04/22 01:42:35;;;;;;;;;;;22.10;56.50;;;;;;1569435;74;680;-62
2023/04/22 01:44:37;;;;;;;;;;;22.10;56.60;;;;;;1564709;74;1101;-61
2023/04/22 01:46:39;;;;;;;;;;;22.10;56.70;;;;;;1577163;74;1586;-61
2023/04/22 01:48:41;;;;;;;;;;;22.20;56.50;;;;;;1577355;74;647;-61
2023/04/22 01:50:42;;;;;;;;;;;22.20;56.20;;;;;;1568242;74;741;-62
2023/04/22 01:52:44;;;;;;;;;;;22.20;56.30;;;;;;1575278;74;684;-60
2023/04/22 01:54:46;;;;;;;;;;;22.20;56.10;;;;;;1566442;74;1936;-60
2023/04/22 01:56:54;;;;;;;;;;;22.20;56.00;;;;;;1568428;74;1071;-61
2023/04/22 01:58:56;;;;;;;;;;;22.20;55.90;;;;;;1580697;74;689;-60
2023/04/22 02:00:58;;;;;;;;;;;22.20;55.70;;;;;;1569214;74;1564;-60
2023/04/22 02:03:00;;;;;;;;;;;22.20;55.70;;;;;;1575690;74;745;-61
2023/04/22 02:05:01;;;;;;;;;;;22.20;55.60;;;;;;1576436;74;1139;-62
2023/04/22 02:07:03;;;;;;;;;;;22.20;55.50;;;;;;1591571;74;661;-61
2023/04/22 02:09:05;;;;;;;;;;;22.10;55.80;;;;;;1592629;74;822;-60
2023/04/22 02:11:07;;;;;;;;;;;22.20;56.00;;;;;;1587927;74;797;-60
2023/04/22 02:13:09;;;;;;;;;;;22.20;56.00;;;;;;1578247;74;716;-61
2023/04/22 02:15:11;;;;;;;;;;;22.20;55.90;;;;;;1581774;74;1934;-59
2023/04/22 02:17:16;;;;;;;;;;;22.20;56.00;;;;;;1571001;74;728;-59
2023/04/22 02:19:16;;;;;;;;;;;22.20;56.00;;;;;;1573465;74;1747;-60
2023/04/22 02:21:18;;;;;;;;;;;22.20;56.00;;;;;;1578911;74;691;-60
2023/04/22 02:23:20;;;;;;;;;;;22.20;55.90;;;;;;1577275;74;744;-60
2023/04/22 02:25:22;;;;;;;;;;;22.20;55.80;;;;;;1586877;74;1138;-61
2023/04/22 02:27:24;;;;;;;;;;;22.20;56.00;;;;;;1581202;74;769;-60
2023/04/22 02:29:26;;;;;;;;;;;22.20;55.90;;;;;;1577148;74;1550;-58
2023/04/22 02:31:28;;;;;;;;;;;22.20;56.10;;;;;;1580224;74;822;-59
2023/04/22 02:33:29;;;;;;;;;;;22.20;56.10;;;;;;1573285;74;704;-60
2023/04/22 02:35:31;;;;;;;;;;;22.20;55.90;;;;;;1579000;74;1961;-59
2023/04/22 02:37:33;;;;;;;;;;;22.20;56.10;;;;;;1590625;74;700;-60
2023/04/22 02:39:35;;;;;;;;;;;22.30;56.10;;;;;;1580067;74;694;-59
2023/04/22 02:41:37;;;;;;;;;;;22.20;56.00;;;;;;1569452;74;781;-59
2023/04/22 02:43:44;;;;;;;;;;;22.30;56.20;;;;;;1575016;74;1362;-58
2023/04/22 02:45:42;;;;;;;;;;;22.30;56.10;;;;;;1588676;74;1634;-59
2023/04/22 02:47:44;;;;;;;;;;;22.30;56.00;;;;;;1586390;74;782;-60
2023/04/22 02:49:46;;;;;;;;;;;22.30;56.30;;;;;;1583949;74;782;-58
2023/04/22 02:51:48;;;;;;;;;;;22.30;56.30;;;;;;1580484;74;645;-59
2023/04/22 02:53:50;;;;;;;;;;;22.30;56.40;;;;;;1573529;74;711;-58
2023/04/22 02:55:54;;;;;;;;;;;22.30;56.20;;;;;;1579632;74;1958;-59
2023/04/22 02:57:55;;;;;;;;;;;22.30;56.20;;;;;;1584191;74;1680;-59
2023/04/22 02:59:57;;;;;;;;;;;22.30;56.10;;;;;;1569490;74;792;-59
2023/04/22 03:01:59;;;;;;;;;;;22.30;56.20;;;;;;1573789;73;766;-59
2023/04/22 03:04:01;;;;;;;;;;;22.30;56.50;;;;;;1580984;73;640;-59
2023/04/22 03:06:03;;;;;;;;;;;22.20;56.40;;;;;;1576218;74;1168;-58
2023/04/22 03:08:05;;;;;;;;;;;22.20;56.50;;;;;;1581482;74;805;-59
2023/04/22 03:10:07;;;;;;;;;;;22.30;56.30;;;;;;1571767;74;746;-59
2023/04/22 03:12:09;;;;;;;;;;;22.30;56.30;;;;;;1573955;74;1543;-60
2023/04/22 03:14:15;;;;;;;;;;;22.30;56.30;;;;;;1580434;74;684;-60
2023/04/22 03:16:16;;;;;;;;;;;22.30;56.30;;;;;;1581492;74;1922;-59
2023/04/22 03:18:18;;;;;;;;;;;22.30;56.30;;;;;;1575668;74;746;-59
2023/04/22 03:20:20;;;;;;;;;;;22.40;56.10;;;;;;1577159;74;740;-60
2023/04/22 03:22:22;;;;;;;;;;;22.40;56.20;;;;;;1577682;74;703;-60
2023/04/22 03:24:23;;;;;;;;;;;22.30;56.20;;;;;;1570514;74;1108;-59
2023/04/22 03:26:25;;;;;;;;;;;22.30;56.20;;;;;;1570063;74;1601;-59
2023/04/22 03:28:27;;;;;;;;;;;22.30;56.30;;;;;;1576825;74;776;-60
2023/04/22 03:30:29;;;;;;;;;;;22.30;56.20;;;;;;1579599;74;658;-60
2023/04/22 03:32:31;;;;;;;;;;;22.30;56.10;;;;;;1570335;74;756;-58
2023/04/22 03:34:33;;;;;;;;;;;22.30;56.10;;;;;;1578110;74;1176;-61
2023/04/22 03:36:35;;;;;;;;;;;22.30;56.00;;;;;;1591954;74;1938;-60
2023/04/22 03:38:36;;;;;;;;;;;22.40;56.00;;;;;;1585381;74;708;-60
2023/04/22 03:40:39;;;;;;;;;;;22.30;56.00;;;;;;1574726;74;1595;-60
2023/04/22 03:42:41;;;;;;;;;;;22.40;56.20;;;;;;1574990;74;727;-60
2023/04/22 03:44:43;;;;;;;;;;;22.30;56.10;;;;;;1575399;74;1107;-60
2023/04/22 03:46:44;;;;;;;;;;;22.30;56.10;;;;;;1587850;74;631;-60
2023/04/22 03:48:46;;;;;;;;;;;22.30;56.10;;;;;;1589632;74;735;-58
2023/04/22 03:50:48;;;;;;;;;;;22.30;56.00;;;;;;1585023;74;667;-60
2023/04/22 03:52:50;;;;;;;;;;;22.30;56.00;;;;;;1574991;74;764;-60
2023/04/22 03:54:52;;;;;;;;;;;22.30;56.40;;;;;;1587549;74;1598;-60
2023/04/22 03:56:54;;;;;;;;;;;22.20;56.00;;;;;;1578997;74;1954;-60
2023/04/22 03:58:56;;;;;;;;;;;22.30;56.20;;;;;;1573323;74;642;-61
2023/04/22 04:00:58;;;;;;;;;;;22.30;56.20;;;;;;1565595;74;740;-60
2023/04/22 04:02:59;;;;;;;;;;;22.20;56.50;;;;;;1568881;74;705;-59
2023/04/22 04:05:01;;;;;;;;;;;22.20;56.60;;;;;;1564940;74;1195;-60
2023/04/22 04:07:03;;;;;;;;;;;22.10;56.80;;;;;;1582817;74;758;-60
2023/04/22 04:09:05;;;;;;;;;;;22.20;57.30;;;;;;1563619;74;1480;-60
2023/04/22 04:11:08;;;;;;;;;;;22.10;57.80;;;;;;1575383;74;752;-60
2023/04/22 04:13:09;;;;;;;;;;;22.00;57.70;;;;;;1580011;74;816;-60
2023/04/22 04:15:11;;;;;;;;;;;22.00;57.40;;;;;;1570792;74;1152;-61
2023/04/22 04:17:13;;;;;;;;;;;22.00;57.30;;;;;;1574743;74;1918;-61
2023/04/22 04:19:15;;;;;;;;;;;22.10;57.40;;;;;;1578167;74;726;-60
2023/04/22 04:21:17;;;;;;;;;;;22.00;57.30;;;;;;1578071;74;1589;-60
2023/04/22 04:23:19;;;;;;;;;;;22.00;57.20;;;;;;1590648;74;732;-60
2023/04/22 04:25:21;;;;;;;;;;;22.00;57.10;;;;;;1569384;74;1148;-61
2023/04/22 04:27:23;;;;;;;;;;;22.10;57.20;;;;;;1567371;74;732;-61
2023/04/22 04:29:25;;;;;;;;;;;22.00;56.90;;;;;;1580640;74;760;-60
2023/04/22 04:31:28;;;;;;;;;;;22.10;57.00;;;;;;1574022;74;724;-60
2023/04/22 04:33:31;;;;;;;;;;;22.10;56.90;;;;;;1572270;74;684;-60
2023/04/22 04:35:33;;;;;;;;;;;22.20;56.60;;;;;;1578864;74;1599;-61
2023/04/22 04:37:35;;;;;;;;;;;22.20;56.50;;;;;;1588637;74;1933;-60
2023/04/22 04:39:37;;;;;;;;;;;22.20;56.40;;;;;;1577525;74;726;-59
2023/04/22 04:41:40;;;;;;;;;;;22.20;56.40;;;;;;1568794;74;719;-60
2023/04/22 04:43:45;;;;;;;;;;;22.20;56.50;;;;;;1566048;74;688;-59
2023/04/22 04:45:45;;;;;;;;;;;22.20;56.50;;;;;;1572137;74;1742;-60
2023/04/22 04:47:53;;;;;;;;;;;22.10;56.60;;;;;;1575921;74;750;-58
2023/04/22 04:49:52;;;;;;;;;;;22.10;56.70;;;;;;1583490;74;1549;-61
2023/04/22 04:51:54;;;;;;;;;;;22.10;56.70;;;;;;1571960;74;731;-60
2023/04/22 04:53:56;;;;;;;;;;;22.10;56.70;;;;;;1578373;74;650;-60
2023/04/22 04:55:58;;;;;;;;;;;22.00;56.70;;;;;;1576111;74;1954;-60
2023/04/22 04:58:00;;;;;;;;;;;22.10;56.80;;;;;;1556025;74;1337;-59
2023/04/22 05:00:02;;;;;;;;;;;22.00;56.80;;;;;;1533502;75;789;-60
2023/04/22 05:02:04;;;;;;;;;;;22.00;56.90;;;;;;1545895;75;772;-60
2023/04/22 05:04:06;;;;;;;;;;;22.00;57.00;;;;;;1540181;75;1533;-60
2023/04/22 05:06:07;;;;;;;;;;;22.00;57.00;;;;;;1535813;75;1108;-61
2023/04/22 05:08:09;;;;;;;;;;;22.00;56.90;;;;;;1539468;75;684;-60
2023/04/22 05:10:11;;;;;;;;;;;22.10;56.70;;;;;;1544715;75;696;-60
2023/04/22 05:12:14;;;;;;;;;;;22.20;56.60;;;;;;1548732;75;698;-59
2023/04/22 05:14:16;;;;;;;;;;;22.10;56.70;;;;;;1564104;74;1168;-60
2023/04/22 05:16:17;;;;;;;;;;;22.10;56.60;;;;;;1546862;75;1938;-59
2023/04/22 05:18:20;;;;;;;;;;;22.20;56.60;;;;;;1549601;75;1550;-61
2023/04/22 05:20:22;;;;;;;;;;;22.10;56.70;;;;;;1531654;75;711;-59
2023/04/22 05:22:24;;;;;;;;;;;22.20;56.40;;;;;;1538923;75;773;-61
2023/04/22 05:24:26;;;;;;;;;;;22.20;56.50;;;;;;1543040;75;1106;-60
2023/04/22 05:26:28;;;;;;;;;;;22.10;56.50;;;;;;1548362;75;781;-58
2023/04/22 05:28:29;;;;;;;;;;;22.00;56.50;;;;;;1546000;75;796;-60
2023/04/22 05:30:31;;;;;;;;;;;22.00;56.50;;;;;;1561066;75;709;-60
2023/04/22 05:32:33;;;;;;;;;;;22.00;56.50;;;;;;1544464;75;1648;-60
2023/04/22 05:34:35;;;;;;;;;;;22.10;56.60;;;;;;1530815;76;1215;-59
2023/04/22 05:36:37;;;;;;;;;;;22.00;56.50;;;;;;1545003;75;1915;-59
2023/04/22 05:38:39;;;;;;;;;;;22.00;56.50;;;;;;1536601;75;727;-60
2023/04/22 05:40:41;;;;;;;;;;;22.00;56.60;;;;;;1546481;76;735;-61
2023/04/22 05:42:43;;;;;;;;;;;22.10;56.80;;;;;;1552590;75;783;-60
2023/04/22 05:44:45;;;;;;;;;;;22.00;57.10;;;;;;1537509;75;1178;-59
2023/04/22 05:46:47;;;;;;;;;;;21.90;57.50;;;;;;1540580;74;1576;-60
2023/04/22 05:48:48;;;;;;;;;;;21.90;57.60;;;;;;1557029;75;755;-58
2023/04/22 05:50:50;;;;;;;;;;;21.80;57.60;;;;;;1546597;75;740;-58
2023/04/22 05:52:52;;;;;;;;;;;21.80;57.70;;;;;;1541741;75;725;-59
2023/04/22 05:54:54;;;;;;;;;;;21.80;57.80;;;;;;1549737;75;1137;-60
2023/04/22 05:56:56;;;;;;;;;;;21.80;58.70;;;;;;1545395;75;1938;-60
2023/04/22 05:58:58;;;;;;;;;;;21.80;58.10;;;;;;1565920;74;1079;-59
2023/04/22 06:01:00;;;;;;;;;;;21.70;57.90;;;;;;1573459;74;1545;-59
2023/04/22 06:03:01;;;;;;;;;;;21.80;57.90;;;;;;1585001;74;691;-59
2023/04/22 06:05:03;;;;;;;;;;;21.80;57.80;;;;;;1583876;74;1152;-57
2023/04/22 06:07:05;;;;;;;;;;;21.80;57.90;;;;;;1573546;74;648;-60
2023/04/22 06:09:07;;;;;;;;;;;21.70;58.10;;;;;;1569691;74;819;-60
2023/04/22 06:11:09;;;;;;;;;;;21.70;58.60;;;;;;1581746;74;767;-60
2023/04/22 06:13:11;;;;;;;;;;;21.80;58.60;;;;;;1570363;75;771;-60
2023/04/22 06:15:13;;;;;;;;;;;21.80;58.50;;;;;;1568372;74;1552;-60
2023/04/22 06:17:15;;;;;;;;;;;21.80;58.10;;;;;;1570209;74;1943;-60
2023/04/22 06:19:17;;;;;;;;;;;21.90;58.00;;;;;;1574249;74;738;-60
2023/04/22 06:21:19;;;;;;;;;;;21.80;57.80;;;;;;1574050;74;584;-58
2023/04/22 06:23:21;;;;;;;;;;;21.90;57.70;;;;;;1564720;74;752;-58
2023/04/22 06:25:23;;;;;;;;;;;21.90;57.60;;;;;;1589372;74;1138;-61
2023/04/22 06:27:25;;;;;;;;;;;21.90;57.50;;;;;;1579671;74;694;-61
2023/04/22 06:29:27;;;;;;;;;;;22.00;57.30;;;;;;1575859;74;1524;-60
2023/04/22 06:31:29;;;;;;;;;;;22.00;57.10;;;;;;1571485;74;814;-59
2023/04/22 06:33:30;;;;;;;;;;;22.00;57.20;;;;;;1569397;74;678;-61
2023/04/22 06:35:32;;;;;;;;;;;22.00;57.20;;;;;;1583797;74;1167;-60
2023/04/22 06:37:34;;;;;;;;;;;22.00;57.30;;;;;;1573519;74;1935;-60
2023/04/22 06:39:36;;;;;;;;;;;21.90;57.40;;;;;;1577658;74;726;-60
2023/04/22 06:41:38;;;;;;;;;;;21.90;57.50;;;;;;1582855;74;699;-60
2023/04/22 06:43:40;;;;;;;;;;;21.90;57.40;;;;;;1566958;74;1592;-60
2023/04/22 06:45:42;;;;;;;;;;;21.90;57.60;;;;;;1581513;74;1140;-58
2023/04/22 06:47:44;;;;;;;;;;;21.90;57.50;;;;;;1576130;74;772;-59
2023/04/22 06:49:46;;;;;;;;;;;22.00;57.40;;;;;;1578109;74;713;-59
2023/04/22 06:51:48;;;;;;;;;;;22.00;57.30;;;;;;1580111;74;739;-59
2023/04/22 06:53:49;;;;;;;;;;;22.00;57.10;;;;;;1574387;74;735;-58
2023/04/22 06:55:53;;;;;;;;;;;22.00;57.00;;;;;;1566497;74;1129;-60
2023/04/22 06:57:55;;;;;;;;;;;21.90;56.80;;;;;;1573897;75;1929;-59
2023/04/22 06:59:57;;;;;;;;;;;22.00;56.60;;;;;;1564151;74;1100;-58
2023/04/22 07:01:59;;;;;;;;;;;22.00;56.50;;;;;;1573205;74;750;-60
2023/04/22 07:04:00;;;;;;;;;;;22.10;56.40;;;;;;1565540;74;741;-61
2023/04/22 07:06:03;;;;;;;;;;;22.00;56.10;;;;;;1570763;74;1175;-61
2023/04/22 07:08:04;;;;;;;;;;;22.10;56.20;;;;;;1580458;74;734;-60
2023/04/22 07:10:07;;;;;;;;;;;22.10;56.20;;;;;;1567226;74;1574;-60
2023/04/22 07:12:09;;;;;;;;;;;22.20;56.10;;;;;;1567354;74;715;-60
2023/04/22 07:14:10;;;;;;;;;;;22.10;56.00;;;;;;1577735;74;771;-60
2023/04/22 07:16:12;;;;;;;;;;;22.20;55.80;;;;;;1572048;74;1144;-59
2023/04/22 07:18:14;;;;;;;;;;;22.30;55.70;;;;;;1566386;74;1941;-60
2023/04/22 07:20:16;;;;;;;;;;;22.20;55.50;;;;;;1589186;74;741;-60
2023/04/22 07:22:18;;;;;;;;;;;22.20;55.30;;;;;;1573776;75;798;-59
2023/04/22 07:24:20;;;;;;;;;;;22.20;55.20;;;;;;1573070;74;1554;-59
2023/04/22 07:26:22;;;;;;;;;;;22.30;55.30;;;;;;1584408;74;703;-60
2023/04/22 07:28:24;;;;;;;;;;;22.20;55.10;;;;;;1571210;74;770;-61
2023/04/22 07:30:26;;;;;;;;;;;22.30;55.20;;;;;;1578210;74;621;-59
2023/04/22 07:32:29;;;;;;;;;;;22.30;55.10;;;;;;1574911;74;1087;-60
2023/04/22 07:34:30;;;;;;;;;;;22.30;55.10;;;;;;1580395;73;1273;-60
2023/04/22 07:36:32;;;;;;;;;;;22.30;55.10;;;;;;1570844;73;1525;-59
2023/04/22 07:38:35;;;;;;;;;;;22.30;55.00;;;;;;1572725;74;1950;-60
2023/04/22 07:40:36;;;;;;;;;;;22.30;55.00;;;;;;1580129;73;1482;-60
2023/04/22 07:42:39;;;;;;;;;;;22.30;55.00;;;;;;1585287;74;1534;-60
2023/04/22 07:44:41;;;;;;;;;;;22.20;54.90;;;;;;1578256;74;1400;-60
2023/04/22 07:46:42;;;;;;;;;;;22.30;55.00;;;;;;1581285;73;1521;-59
2023/04/22 07:48:44;;;;;;;;;;;22.30;55.00;;;;;;1584417;74;1279;-60
2023/04/22 07:50:46;;;;;;;;;;;22.30;55.00;;;;;;1569799;74;1510;-59
2023/04/22 07:52:48;;;;;;;;;;;22.30;55.00;;;;;;1581103;74;1514;-59
2023/04/22 07:54:50;;;;;;;;;;;22.20;54.80;;;;;;1572366;74;1555;-60
2023/04/22 07:56:52;;;;;;;;;;;22.40;55.00;;;;;;1573569;74;1132;-60
2023/04/22 07:58:54;;;;;;;;;;;22.30;55.00;;;;;;1580287;74;1968;-59
2023/04/22 08:00:56;;;;;;;;;;;22.30;55.00;;;;;;1571213;74;1107;-59
2023/04/22 08:02:58;;;;;;;;;;;22.30;55.00;;;;;;1578416;74;1208;-60
2023/04/22 08:05:00;;;;;;;;;;;22.30;55.10;;;;;;1574272;74;1116;-58
2023/04/22 08:07:02;;;;;;;;;;;22.30;55.00;;;;;;1578097;74;1539;-60
2023/04/22 08:09:04;;;;;;;;;;;22.30;55.10;;;;;;1578967;74;1080;-60
2023/04/22 08:11:06;;;;;;;;;;;22.30;55.20;;;;;;1570718;74;1108;-59
2023/04/22 08:13:08;;;;;;;;;;;22.30;55.20;;;;;;1569862;74;1517;-59
2023/04/22 08:15:11;;;;;;;;;;;22.30;55.20;;;;;;1581939;74;1136;-60
2023/04/22 08:17:13;;;;;;;;;;;22.30;55.30;;;;;;1574511;74;1921;-60
2023/04/22 08:19:15;;;;;;;;;;;22.30;55.30;;;;;;1570017;74;1074;-59
2023/04/22 08:21:16;;;;;;;;;;;22.30;55.30;;;;;;1574441;74;1262;-58
2023/04/22 08:23:18;;;;;;;;;;;22.30;55.30;;;;;;1566270;74;1069;-60
2023/04/22 08:25:20;;;;;;;;;;;22.30;55.20;;;;;;1565748;74;1125;-59
2023/04/22 08:27:22;;;;;;;;;;;22.30;55.40;;;;;;1576737;74;1084;-60
2023/04/22 08:29:24;;;;;;;;;;;22.30;55.30;;;;;;1571212;74;1025;-59
2023/04/22 08:31:26;;;;;;;;;;;22.30;55.40;;;;;;1573835;74;1199;-59
2023/04/22 08:33:28;;;;;;;;;;;22.30;55.30;;;;;;1575585;74;1149;-60
2023/04/22 08:35:30;;;;;;;;;;;22.30;55.30;;;;;;1583332;74;1585;-60
2023/04/22 08:37:32;;;;;;;;;;;22.30;55.20;;;;;;1587263;74;1919;-60
2023/04/22 08:39:33;;;;;;;;;;;22.30;55.40;;;;;;1582252;74;1098;-60
2023/04/22 08:41:35;;;;;;;;;;;22.30;55.30;;;;;;1569330;74;1489;-61
2023/04/22 08:43:37;;;;;;;;;;;22.30;55.30;;;;;;1581577;74;1481;-61
2023/04/22 08:45:39;;;;;;;;;;;22.30;55.20;;;;;;1574815;74;1168;-60
2023/04/22 08:47:41;;;;;;;;;;;22.30;55.30;;;;;;1579973;74;1203;-61
2023/04/22 08:49:43;;;;;;;;;;;22.30;55.30;;;;;;1571297;74;1576;-59
2023/04/22 08:51:45;;;;;;;;;;;22.30;55.20;;;;;;1582988;74;1096;-61
2023/04/22 08:53:47;;;;;;;;;;;22.30;55.20;;;;;;1579223;74;1041;-61
2023/04/22 08:55:49;;;;;;;;;;;22.30;55.20;;;;;;1575551;74;1437;-60
2023/04/22 08:57:51;;;;;;;;;;;22.30;55.20;;;;;;1573155;74;1919;-61
2023/04/22 08:59:54;;;;;;;;;;;22.30;55.30;;;;;;1573430;74;1496;-61
2023/04/22 09:01:57;;;;;;;;;;;22.40;55.70;;;;;;1570308;74;1104;-60
2023/04/22 09:03:59;;;;;;;;;;;22.40;55.80;;;;;;1580053;74;1263;-61
2023/04/22 09:06:03;;;;;;;;;;;22.60;55.70;;;;;;1572626;74;1376;-61
2023/04/22 09:08:06;;;;;;;;;;;22.60;55.60;;;;;;1571135;74;1159;-60
2023/04/22 09:10:10;;;;;;;;;;;22.70;55.50;;;;;;1577042;74;1530;-61
2023/04/22 09:12:12;;;;;;;;;;;22.70;55.40;;;;;;1578733;74;1557;-62
2023/04/22 09:14:15;;;;;;;;;;;22.80;55.30;;;;;;1568952;74;1147;-63
2023/04/22 09:16:17;;;;;;;;;;;22.70;55.10;;;;;;1580935;74;1210;-63
2023/04/22 09:18:19;;;;;;;;;;;22.80;55.00;;;;;;1577918;74;1923;-63
2023/04/22 09:20:23;;;;;;;;;;;22.80;54.90;;;;;;1582096;74;1064;-62
2023/04/22 09:22:25;;;;;;;;;;;22.80;54.90;;;;;;1580719;74;1679;-63
2023/04/22 09:24:27;;;;;;;;;;;22.90;55.00;;;;;;1577870;74;1231;-63
2023/04/22 09:26:30;;;;;;;;;;;23.00;55.00;;;;;;1578472;74;1168;-63
2023/04/22 09:28:32;;;;;;;;;;;22.90;54.70;;;;;;1571282;74;1108;-63
2023/04/22 09:30:36;;;;;;;;;;;22.90;54.70;;;;;;1548368;75;1091;-63
2023/04/22 09:32:39;;;;;;;;;;;23.00;54.70;;;;;;1574431;74;1492;-63
2023/04/22 09:34:50;;;;;;;;;;;23.00;54.60;;;;;;1574916;74;1136;-63
2023/04/22 09:36:52;;;;;;;;;;;23.00;54.50;;;;;;1559412;74;1126;-63
2023/04/22 09:38:55;;;;;;;;;;;23.00;54.40;;;;;;1527648;76;1944;-63
2023/04/22 09:40:56;;;;;;;;;;;23.00;54.40;;;;;;1566375;74;1135;-63
2023/04/22 09:43:00;;;;;;;;;;;23.00;54.30;;;;;;1561766;74;1569;-63
2023/04/22 09:45:02;;;;;;;;;;;23.00;54.20;;;;;;1566870;74;1370;-63
2023/04/22 09:47:04;;;;;;;;;;;23.10;54.30;;;;;;1564567;74;1065;-63
2023/04/22 09:49:05;;;;;;;;;;;23.00;54.10;;;;;;1571451;74;1501;-63
2023/04/22 09:51:09;;;;;;;;;;;23.00;54.00;;;;;;1579983;74;1071;-63
2023/04/22 09:53:13;;;;;;;;;;;23.00;53.90;;;;;;1562866;74;1066;-63
2023/04/22 09:55:14;;;;;;;;;;;23.00;53.90;;;;;;1558971;74;1189;-63
2023/04/22 09:57:17;;;;;;;;;;;23.10;54.00;;;;;;1567184;75;1093;-64
2023/04/22 09:59:21;;;;;;;;;;;23.00;53.80;;;;;;1565598;74;1950;-63
2023/04/22 10:01:25;;;;;;;;;;;23.10;53.90;;;;;;1572198;74;1137;-62
2023/04/22 10:03:27;;;;;;;;;;;23.10;53.80;;;;;;1560478;74;1912;-62
2023/04/22 10:05:29;;;;;;;;;;;23.10;53.80;;;;;;1566385;74;1506;-63
2023/04/22 10:07:31;;;;;;;;;;;23.00;53.60;;;;;;1560858;74;1101;-62
2023/04/22 10:09:33;;;;;;;;;;;23.10;53.70;;;;;;1567801;74;1196;-62
2023/04/22 10:11:35;;;;;;;;;;;23.10;53.70;;;;;;1563786;74;1519;-63
2023/04/22 10:13:37;;;;;;;;;;;23.10;53.60;;;;;;1559101;74;1472;-62
2023/04/22 10:15:42;;;;;;;;;;;23.10;53.60;;;;;;1524803;76;1157;-62
2023/04/22 10:17:44;;;;;;;;;;;23.00;53.40;;;;;;1579600;74;1134;-62
2023/04/22 10:19:46;;;;;;;;;;;23.10;53.60;;;;;;1575009;74;1940;-62
2023/04/22 10:21:49;;;;;;;;;;;23.10;53.60;;;;;;1568569;74;1478;-60
2023/04/22 10:23:51;;;;;;;;;;;23.00;52.70;;;;;;1559540;74;1423;-61
2023/04/22 10:25:53;;;;;;;;;;;23.00;52.60;;;;;;1563225;74;1396;-60
2023/04/22 10:28:02;;;;;;;;;;;23.00;52.30;;;;;;1554440;74;1564;-60
2023/04/22 10:30:04;;;;;;;;;;;23.00;52.40;;;;;;1565806;74;1035;-59
2023/04/22 10:32:07;;;;;;;;;;;23.00;52.50;;;;;;1568747;74;1136;-60
2023/04/22 10:34:12;;;;;;;;;;;23.00;51.00;;;;;;1531940;76;1191;-60
2023/04/22 10:36:16;;;;;;;;;;;22.90;48.00;;;;;;1512645;77;1187;-59
2023/04/22 10:38:18;;;;;;;;;;;22.80;47.30;;;;;;1531430;76;1931;-60
2023/04/22 10:40:21;;;;;;;;;;;22.60;48.50;;;;;;1534604;76;1105;-60
2023/04/22 10:42:23;;;;;;;;;;;22.70;49.80;;;;;;1558030;75;1277;-60
2023/04/22 10:44:27;;;;;;;;;;;22.70;45.90;;;;;;1585508;74;1508;-59
2023/04/22 10:46:35;;;;;;;;;;;22.60;48.00;;;;;;1580813;74;1167;-59
2023/04/22 10:48:49;;;;;;;;;;;22.60;48.10;;;;;;1588201;74;1502;-59
2023/04/22 10:50:51;;;;;;;;;;;22.60;48.20;;;;;;1580330;74;1368;-60
2023/04/22 10:53:02;;;;;;;;;;;22.50;47.50;;;;;;1559942;74;1102;-60
2023/04/22 10:55:04;;;;;;;;;;;22.60;48.00;;;;;;1573251;74;1502;-61
2023/04/22 10:57:06;;;;;;;;;;;22.40;40.60;;;;;;1588081;74;1115;-60
2023/04/22 10:59:16;;;;;;;;;;;22.30;41.70;;;;;;1582774;74;1950;-59
2023/04/22 11:01:18;;;;;;;;;;;22.30;46.00;;;;;;1584095;74;1078;-61
2023/04/22 11:03:22;;;;;;;;;;;22.40;46.70;;;;;;1584123;74;1131;-59
2023/04/22 11:05:25;;;;;;;;;;;22.50;46.90;;;;;;1582132;74;1922;-60
2023/04/22 11:07:33;;;;;;;;;;;22.60;47.20;;;;;;1584532;74;1067;-59
2023/04/22 11:09:36;;;;;;;;;;;22.60;47.00;;;;;;1587029;74;1841;-60
2023/04/22 11:11:38;;;;;;;;;;;22.60;45.50;;;;;;1575249;74;1963;-61
2023/04/22 11:13:43;;;;;;;;;;;22.50;44.80;;;;;;1578629;74;1394;-59
2023/04/22 11:15:45;;;;;;;;;;;22.30;43.20;;;;;;1571386;74;1175;-59
2023/04/22 11:17:49;;;;;;;;;;;22.40;45.40;;;;;;1584085;74;1407;-59
2023/04/22 11:19:55;;;;;;;;;;;22.40;44.90;;;;;;1587632;74;1949;-60
2023/04/22 11:21:54;;;;;;;;;;;22.50;45.90;;;;;;1578012;74;1676;-59
2023/04/22 11:24:01;;;;;;;;;;;22.40;42.60;;;;;;1583743;74;1467;-59
2023/04/22 11:26:01;;;;;;;;;;;22.40;45.60;;;;;;1577665;74;1660;-59
2023/04/22 11:28:03;;;;;;;;;;;22.40;46.30;;;;;;1588342;74;1176;-59
2023/04/22 11:30:09;;;;;;;;;;;22.50;46.50;;;;;;1592504;74;1069;-59
2023/04/22 11:32:11;;;;;;;;;;;22.50;45.80;;;;;;1585373;74;1433;-59
2023/04/22 11:34:13;;;;;;;;;;;22.40;43.80;;;;;;1583180;74;1499;-59
2023/04/22 11:36:15;;;;;;;;;;;22.40;45.30;;;;;;1578610;74;1118;-59
2023/04/22 11:38:17;;;;;;;;;;;22.30;40.60;;;;;;1560277;75;1480;-59
2023/04/22 11:40:20;;;;;;;;;;;22.20;39.20;;;;;;1556471;75;1934;-59
2023/04/22 11:42:22;;;;;;;;;;;22.00;36.80;;;;;;1574085;75;1252;-62
2023/04/22 11:44:25;;;;;;;;;;;22.00;40.00;;;;;;1568648;74;1176;-61
2023/04/22 11:46:30;;;;;;;;;;;21.80;37.90;;;;;;1548379;75;1593;-59
2023/04/22 11:48:32;;;;;;;;;;;21.90;38.60;;;;;;1560762;75;1313;-59
2023/04/22 11:50:36;;;;;;;;;;;21.70;36.50;;;;;;1561596;75;1129;-60
2023/04/22 11:52:44;;;;;;;;;;;21.70;37.40;;;;;;1561684;75;1836;-59
2023/04/22 11:54:46;;;;;;;;;;;21.70;40.80;;;;;;1557652;75;1191;-59
2023/04/22 11:56:48;;;;;;;;;;;21.70;35.90;;;;;;1567356;75;1489;-59
2023/04/22 11:58:50;;;;;;;;;;;21.60;38.50;;;;;;1558057;75;1955;-59
2023/04/22 12:00:52;;;;;;;;;;;21.70;36.40;;;;;;1560519;75;1068;-58
2023/04/22 12:02:56;;;;;;;;;;;21.60;37.80;;;;;;1562037;75;1157;-60
2023/04/22 12:04:58;;;;;;;;;;;21.60;36.40;;;;;;1573041;75;1867;-60
2023/04/22 12:07:00;;;;;;;;;;;21.60;38.30;;;;;;1567552;75;1425;-60